sensor_id;sensor_type;location;lat;lon;timestamp;P1;durP1;ratioP1;P2;durP2;ratioP2
6378;SDS011;3222;48.858;10.128;2024-01-27T00:00:05;4.90;;;1.90;;
6378;SDS011;3222;48.858;10.128;2024-01-27T00:02:33;3.23;;;2.57;;
6378;SDS011;3222;48.858;10.128;2024-01-27T00:05:00;6.13;;;2.40;;
6378;SDS011;3222;48.858;10.128;2024-01-27T00:07:25;2.87;;;2.33;;
6378;SDS011;3222;48.858;10.128;2024-01-27T00:09:53;6.20;;;2.57;;
6378;SDS011;3222;48.858;10.128;2024-01-27T00:12:23;5.27;;;2.80;;
6378;SDS011;3222;48.858;10.128;2024-01-27T00:14:48;2.97;;;2.70;;
6378;SDS011;3222;48.858;10.128;2024-01-27T00:17:15;5.40;;;2.70;;
6378;SDS011;3222;48.858;10.128;2024-01-27T00:19:40;6.13;;;2.70;;
6378;SDS011;3222;48.858;10.128;2024-01-27T00:22:06;5.57;;;2.50;;
6378;SDS011;3222;48.858;10.128;2024-01-27T00:24:33;6.20;;;2.50;;
6378;SDS011;3222;48.858;10.128;2024-01-27T00:26:59;6.47;;;2.60;;
6378;SDS011;3222;48.858;10.128;2024-01-27T00:29:25;7.07;;;2.50;;
6378;SDS011;3222;48.858;10.128;2024-01-27T00:31:51;2.97;;;2.63;;
6378;SDS011;3222;48.858;10.128;2024-01-27T00:34:16;5.80;;;3.03;;
6378;SDS011;3222;48.858;10.128;2024-01-27T00:36:42;3.83;;;2.80;;
6378;SDS011;3222;48.858;10.128;2024-01-27T00:39:14;7.77;;;2.83;;
6378;SDS011;3222;48.858;10.128;2024-01-27T00:41:40;5.50;;;3.00;;
6378;SDS011;3222;48.858;10.128;2024-01-27T00:44:05;3.10;;;2.40;;
6378;SDS011;3222;48.858;10.128;2024-01-27T00:46:31;4.70;;;2.60;;
6378;SDS011;3222;48.858;10.128;2024-01-27T00:48:57;4.00;;;2.63;;
6378;SDS011;3222;48.858;10.128;2024-01-27T00:51:23;6.50;;;2.50;;
6378;SDS011;3222;48.858;10.128;2024-01-27T00:53:48;6.57;;;2.90;;
6378;SDS011;3222;48.858;10.128;2024-01-27T00:56:14;2.97;;;2.70;;
6378;SDS011;3222;48.858;10.128;2024-01-27T00:58:39;5.00;;;3.07;;
6378;SDS011;3222;48.858;10.128;2024-01-27T01:01:05;6.43;;;2.93;;
6378;SDS011;3222;48.858;10.128;2024-01-27T01:03:31;5.47;;;3.10;;
6378;SDS011;3222;48.858;10.128;2024-01-27T01:05:56;5.17;;;2.90;;
6378;SDS011;3222;48.858;10.128;2024-01-27T01:08:22;4.77;;;3.00;;
6378;SDS011;3222;48.858;10.128;2024-01-27T01:10:48;7.20;;;2.87;;
6378;SDS011;3222;48.858;10.128;2024-01-27T01:13:13;5.17;;;3.10;;
6378;SDS011;3222;48.858;10.128;2024-01-27T01:15:39;4.13;;;2.87;;
6378;SDS011;3222;48.858;10.128;2024-01-27T01:18:05;5.13;;;3.13;;
6378;SDS011;3222;48.858;10.128;2024-01-27T01:20:30;5.00;;;3.20;;
6378;SDS011;3222;48.858;10.128;2024-01-27T01:22:57;4.00;;;3.00;;
6378;SDS011;3222;48.858;10.128;2024-01-27T01:25:23;3.57;;;2.93;;
6378;SDS011;3222;48.858;10.128;2024-01-27T01:27:49;4.57;;;2.73;;
6378;SDS011;3222;48.858;10.128;2024-01-27T01:30:15;6.23;;;3.10;;
6378;SDS011;3222;48.858;10.128;2024-01-27T01:32:42;3.83;;;2.83;;
6378;SDS011;3222;48.858;10.128;2024-01-27T01:35:08;6.33;;;3.20;;
6378;SDS011;3222;48.858;10.128;2024-01-27T01:37:35;6.47;;;3.83;;
6378;SDS011;3222;48.858;10.128;2024-01-27T01:40:00;6.50;;;3.43;;
6378;SDS011;3222;48.858;10.128;2024-01-27T01:42:27;6.40;;;3.97;;
6378;SDS011;3222;48.858;10.128;2024-01-27T01:44:54;4.27;;;3.43;;
6378;SDS011;3222;48.858;10.128;2024-01-27T01:47:20;8.57;;;3.97;;
6378;SDS011;3222;48.858;10.128;2024-01-27T01:49:47;8.07;;;3.13;;
6378;SDS011;3222;48.858;10.128;2024-01-27T01:52:14;7.07;;;3.80;;
6378;SDS011;3222;48.858;10.128;2024-01-27T01:54:48;4.53;;;3.10;;
6378;SDS011;3222;48.858;10.128;2024-01-27T01:57:14;7.93;;;3.37;;
6378;SDS011;3222;48.858;10.128;2024-01-27T01:59:40;6.37;;;3.70;;
6378;SDS011;3222;48.858;10.128;2024-01-27T02:02:07;4.63;;;3.87;;
6378;SDS011;3222;48.858;10.128;2024-01-27T02:04:40;5.53;;;3.50;;
6378;SDS011;3222;48.858;10.128;2024-01-27T02:07:06;6.07;;;3.60;;
6378;SDS011;3222;48.858;10.128;2024-01-27T02:09:32;5.27;;;3.33;;
6378;SDS011;3222;48.858;10.128;2024-01-27T02:11:58;3.77;;;3.07;;
6378;SDS011;3222;48.858;10.128;2024-01-27T02:14:24;4.27;;;3.30;;
6378;SDS011;3222;48.858;10.128;2024-01-27T02:16:51;6.67;;;3.47;;
6378;SDS011;3222;48.858;10.128;2024-01-27T02:19:17;6.93;;;2.90;;
6378;SDS011;3222;48.858;10.128;2024-01-27T02:21:42;8.00;;;3.17;;
6378;SDS011;3222;48.858;10.128;2024-01-27T02:24:08;6.37;;;2.87;;
6378;SDS011;3222;48.858;10.128;2024-01-27T02:26:34;5.77;;;3.40;;
6378;SDS011;3222;48.858;10.128;2024-01-27T02:29:00;3.83;;;3.47;;
6378;SDS011;3222;48.858;10.128;2024-01-27T02:31:26;8.20;;;4.30;;
6378;SDS011;3222;48.858;10.128;2024-01-27T02:33:51;6.63;;;4.27;;
6378;SDS011;3222;48.858;10.128;2024-01-27T02:36:17;6.13;;;4.17;;
6378;SDS011;3222;48.858;10.128;2024-01-27T02:38:43;5.07;;;4.30;;
6378;SDS011;3222;48.858;10.128;2024-01-27T02:41:11;5.80;;;4.00;;
6378;SDS011;3222;48.858;10.128;2024-01-27T02:43:37;4.43;;;3.90;;
6378;SDS011;3222;48.858;10.128;2024-01-27T02:46:05;5.33;;;3.70;;
6378;SDS011;3222;48.858;10.128;2024-01-27T02:48:36;4.37;;;3.20;;
6378;SDS011;3222;48.858;10.128;2024-01-27T02:51:04;6.30;;;3.53;;
6378;SDS011;3222;48.858;10.128;2024-01-27T02:53:30;5.93;;;3.47;;
6378;SDS011;3222;48.858;10.128;2024-01-27T02:55:56;4.97;;;3.13;;
6378;SDS011;3222;48.858;10.128;2024-01-27T02:58:21;5.30;;;3.03;;
6378;SDS011;3222;48.858;10.128;2024-01-27T03:00:47;7.20;;;3.23;;
6378;SDS011;3222;48.858;10.128;2024-01-27T03:03:13;4.67;;;2.80;;
6378;SDS011;3222;48.858;10.128;2024-01-27T03:05:39;8.10;;;3.17;;
6378;SDS011;3222;48.858;10.128;2024-01-27T03:08:04;4.77;;;2.90;;
6378;SDS011;3222;48.858;10.128;2024-01-27T03:10:30;5.93;;;2.90;;
6378;SDS011;3222;48.858;10.128;2024-01-27T03:12:56;3.70;;;2.90;;
6378;SDS011;3222;48.858;10.128;2024-01-27T03:15:22;6.07;;;3.00;;
6378;SDS011;3222;48.858;10.128;2024-01-27T03:17:48;5.90;;;3.27;;
6378;SDS011;3222;48.858;10.128;2024-01-27T03:20:13;4.10;;;2.83;;
6378;SDS011;3222;48.858;10.128;2024-01-27T03:22:39;5.00;;;3.07;;
6378;SDS011;3222;48.858;10.128;2024-01-27T03:25:08;6.47;;;3.37;;
6378;SDS011;3222;48.858;10.128;2024-01-27T03:27:34;5.93;;;3.00;;
6378;SDS011;3222;48.858;10.128;2024-01-27T03:30:00;6.17;;;3.63;;
6378;SDS011;3222;48.858;10.128;2024-01-27T03:32:27;6.67;;;3.10;;
6378;SDS011;3222;48.858;10.128;2024-01-27T03:34:53;5.73;;;3.47;;
6378;SDS011;3222;48.858;10.128;2024-01-27T03:37:21;3.03;;;2.60;;
6378;SDS011;3222;48.858;10.128;2024-01-27T03:39:47;6.07;;;3.07;;
6378;SDS011;3222;48.858;10.128;2024-01-27T03:42:13;7.93;;;3.37;;
6378;SDS011;3222;48.858;10.128;2024-01-27T03:44:39;5.70;;;3.00;;
6378;SDS011;3222;48.858;10.128;2024-01-27T03:47:04;3.57;;;2.73;;
6378;SDS011;3222;48.858;10.128;2024-01-27T03:49:30;4.73;;;3.40;;
6378;SDS011;3222;48.858;10.128;2024-01-27T03:51:56;5.10;;;3.67;;
6378;SDS011;3222;48.858;10.128;2024-01-27T03:54:21;4.57;;;3.03;;
6378;SDS011;3222;48.858;10.128;2024-01-27T03:56:47;6.10;;;2.70;;
6378;SDS011;3222;48.858;10.128;2024-01-27T03:59:12;4.83;;;3.43;;
6378;SDS011;3222;48.858;10.128;2024-01-27T04:01:38;5.87;;;2.90;;
6378;SDS011;3222;48.858;10.128;2024-01-27T04:04:04;5.63;;;3.20;;
6378;SDS011;3222;48.858;10.128;2024-01-27T04:06:35;3.70;;;3.07;;
6378;SDS011;3222;48.858;10.128;2024-01-27T04:09:02;6.33;;;3.43;;
6378;SDS011;3222;48.858;10.128;2024-01-27T04:11:28;5.73;;;3.00;;
6378;SDS011;3222;48.858;10.128;2024-01-27T04:13:53;7.33;;;3.00;;
6378;SDS011;3222;48.858;10.128;2024-01-27T04:16:19;5.47;;;3.53;;
6378;SDS011;3222;48.858;10.128;2024-01-27T04:18:45;4.33;;;3.00;;
6378;SDS011;3222;48.858;10.128;2024-01-27T04:21:11;5.23;;;3.30;;
6378;SDS011;3222;48.858;10.128;2024-01-27T04:23:36;7.13;;;3.17;;
6378;SDS011;3222;48.858;10.128;2024-01-27T04:26:02;5.20;;;2.93;;
6378;SDS011;3222;48.858;10.128;2024-01-27T04:28:27;5.23;;;2.80;;
6378;SDS011;3222;48.858;10.128;2024-01-27T04:30:55;6.30;;;3.37;;
6378;SDS011;3222;48.858;10.128;2024-01-27T04:33:20;8.80;;;3.07;;
6378;SDS011;3222;48.858;10.128;2024-01-27T04:35:46;3.80;;;3.17;;
6378;SDS011;3222;48.858;10.128;2024-01-27T04:38:12;6.13;;;3.23;;
6378;SDS011;3222;48.858;10.128;2024-01-27T04:40:37;7.90;;;3.30;;
6378;SDS011;3222;48.858;10.128;2024-01-27T04:43:03;4.77;;;3.07;;
6378;SDS011;3222;48.858;10.128;2024-01-27T04:45:29;5.70;;;3.10;;
6378;SDS011;3222;48.858;10.128;2024-01-27T04:47:55;4.40;;;3.13;;
6378;SDS011;3222;48.858;10.128;2024-01-27T04:50:20;4.53;;;2.97;;
6378;SDS011;3222;48.858;10.128;2024-01-27T04:52:46;3.93;;;2.87;;
6378;SDS011;3222;48.858;10.128;2024-01-27T04:55:11;8.10;;;2.80;;
6378;SDS011;3222;48.858;10.128;2024-01-27T04:57:37;9.03;;;3.00;;
6378;SDS011;3222;48.858;10.128;2024-01-27T05:00:04;5.07;;;2.90;;
6378;SDS011;3222;48.858;10.128;2024-01-27T05:02:35;5.80;;;3.10;;
6378;SDS011;3222;48.858;10.128;2024-01-27T05:05:01;5.60;;;2.97;;
6378;SDS011;3222;48.858;10.128;2024-01-27T05:07:28;5.47;;;2.93;;
6378;SDS011;3222;48.858;10.128;2024-01-27T05:09:53;9.10;;;3.40;;
6378;SDS011;3222;48.858;10.128;2024-01-27T05:12:19;6.10;;;3.10;;
6378;SDS011;3222;48.858;10.128;2024-01-27T05:14:45;4.50;;;2.87;;
6378;SDS011;3222;48.858;10.128;2024-01-27T05:17:11;8.00;;;3.07;;
6378;SDS011;3222;48.858;10.128;2024-01-27T05:19:36;6.20;;;3.07;;
6378;SDS011;3222;48.858;10.128;2024-01-27T05:22:02;7.00;;;3.20;;
6378;SDS011;3222;48.858;10.128;2024-01-27T05:24:28;6.43;;;3.13;;
6378;SDS011;3222;48.858;10.128;2024-01-27T05:26:53;5.87;;;3.17;;
6378;SDS011;3222;48.858;10.128;2024-01-27T05:29:19;5.53;;;3.23;;
6378;SDS011;3222;48.858;10.128;2024-01-27T05:31:45;4.47;;;2.90;;
6378;SDS011;3222;48.858;10.128;2024-01-27T05:34:10;6.27;;;3.07;;
6378;SDS011;3222;48.858;10.128;2024-01-27T05:36:36;4.63;;;2.70;;
6378;SDS011;3222;48.858;10.128;2024-01-27T05:39:02;5.77;;;3.30;;
6378;SDS011;3222;48.858;10.128;2024-01-27T05:41:31;6.47;;;3.70;;
6378;SDS011;3222;48.858;10.128;2024-01-27T05:43:57;6.90;;;3.33;;
6378;SDS011;3222;48.858;10.128;2024-01-27T05:46:24;8.87;;;3.63;;
6378;SDS011;3222;48.858;10.128;2024-01-27T05:48:50;6.37;;;3.57;;
6378;SDS011;3222;48.858;10.128;2024-01-27T05:51:19;9.67;;;3.43;;
6378;SDS011;3222;48.858;10.128;2024-01-27T05:53:45;6.60;;;4.00;;
6378;SDS011;3222;48.858;10.128;2024-01-27T05:56:11;4.60;;;3.30;;
6378;SDS011;3222;48.858;10.128;2024-01-27T05:58:37;7.57;;;3.13;;
6378;SDS011;3222;48.858;10.128;2024-01-27T06:01:03;4.63;;;3.13;;
6378;SDS011;3222;48.858;10.128;2024-01-27T06:03:28;7.57;;;3.80;;
6378;SDS011;3222;48.858;10.128;2024-01-27T06:05:54;7.57;;;3.13;;
6378;SDS011;3222;48.858;10.128;2024-01-27T06:08:20;7.27;;;3.30;;
6378;SDS011;3222;48.858;10.128;2024-01-27T06:10:46;6.27;;;3.10;;
6378;SDS011;3222;48.858;10.128;2024-01-27T06:13:12;7.57;;;3.30;;
6378;SDS011;3222;48.858;10.128;2024-01-27T06:15:37;9.00;;;4.00;;
6378;SDS011;3222;48.858;10.128;2024-01-27T06:18:04;5.93;;;4.00;;
6378;SDS011;3222;48.858;10.128;2024-01-27T06:20:31;7.47;;;4.13;;
6378;SDS011;3222;48.858;10.128;2024-01-27T06:22:56;7.07;;;4.03;;
6378;SDS011;3222;48.858;10.128;2024-01-27T06:25:22;6.63;;;4.00;;
6378;SDS011;3222;48.858;10.128;2024-01-27T06:27:48;7.17;;;3.63;;
6378;SDS011;3222;48.858;10.128;2024-01-27T06:30:14;9.00;;;4.20;;
6378;SDS011;3222;48.858;10.128;2024-01-27T06:32:40;5.63;;;3.73;;
6378;SDS011;3222;48.858;10.128;2024-01-27T06:35:06;6.17;;;3.57;;
6378;SDS011;3222;48.858;10.128;2024-01-27T06:37:32;4.93;;;3.13;;
6378;SDS011;3222;48.858;10.128;2024-01-27T06:39:58;7.03;;;3.43;;
6378;SDS011;3222;48.858;10.128;2024-01-27T06:42:24;7.57;;;3.37;;
6378;SDS011;3222;48.858;10.128;2024-01-27T06:44:49;5.33;;;3.53;;
6378;SDS011;3222;48.858;10.128;2024-01-27T06:47:15;4.60;;;2.90;;
6378;SDS011;3222;48.858;10.128;2024-01-27T06:49:41;5.47;;;3.27;;
6378;SDS011;3222;48.858;10.128;2024-01-27T06:52:07;8.47;;;3.83;;
6378;SDS011;3222;48.858;10.128;2024-01-27T06:54:32;6.10;;;3.43;;
6378;SDS011;3222;48.858;10.128;2024-01-27T06:56:59;7.17;;;3.20;;
6378;SDS011;3222;48.858;10.128;2024-01-27T06:59:25;7.10;;;3.27;;
6378;SDS011;3222;48.858;10.128;2024-01-27T07:01:51;5.97;;;3.30;;
6378;SDS011;3222;48.858;10.128;2024-01-27T07:04:17;5.77;;;3.37;;
6378;SDS011;3222;48.858;10.128;2024-01-27T07:06:43;5.73;;;3.33;;
6378;SDS011;3222;48.858;10.128;2024-01-27T07:09:09;6.30;;;3.60;;
6378;SDS011;3222;48.858;10.128;2024-01-27T07:11:35;5.00;;;3.33;;
6378;SDS011;3222;48.858;10.128;2024-01-27T07:14:01;7.17;;;3.53;;
6378;SDS011;3222;48.858;10.128;2024-01-27T07:16:28;7.43;;;3.93;;
6378;SDS011;3222;48.858;10.128;2024-01-27T07:18:53;6.90;;;3.73;;
6378;SDS011;3222;48.858;10.128;2024-01-27T07:21:19;6.13;;;3.53;;
6378;SDS011;3222;48.858;10.128;2024-01-27T07:23:45;5.97;;;3.50;;
6378;SDS011;3222;48.858;10.128;2024-01-27T07:26:10;8.20;;;3.40;;
6378;SDS011;3222;48.858;10.128;2024-01-27T07:28:36;7.43;;;3.53;;
6378;SDS011;3222;48.858;10.128;2024-01-27T07:31:03;5.77;;;3.77;;
6378;SDS011;3222;48.858;10.128;2024-01-27T07:33:29;4.80;;;3.53;;
6378;SDS011;3222;48.858;10.128;2024-01-27T07:35:54;4.30;;;3.40;;
6378;SDS011;3222;48.858;10.128;2024-01-27T07:38:20;7.83;;;3.50;;
6378;SDS011;3222;48.858;10.128;2024-01-27T07:40:46;6.50;;;3.07;;
6378;SDS011;3222;48.858;10.128;2024-01-27T07:43:11;5.50;;;3.30;;
6378;SDS011;3222;48.858;10.128;2024-01-27T07:45:37;5.47;;;3.43;;
6378;SDS011;3222;48.858;10.128;2024-01-27T07:48:02;9.70;;;3.50;;
6378;SDS011;3222;48.858;10.128;2024-01-27T07:50:29;4.70;;;3.10;;
6378;SDS011;3222;48.858;10.128;2024-01-27T07:52:54;6.73;;;3.43;;
6378;SDS011;3222;48.858;10.128;2024-01-27T07:55:20;5.30;;;3.43;;
6378;SDS011;3222;48.858;10.128;2024-01-27T07:57:46;5.37;;;3.20;;
6378;SDS011;3222;48.858;10.128;2024-01-27T08:00:12;5.90;;;3.00;;
6378;SDS011;3222;48.858;10.128;2024-01-27T08:02:38;4.63;;;3.30;;
6378;SDS011;3222;48.858;10.128;2024-01-27T08:05:06;5.07;;;3.07;;
6378;SDS011;3222;48.858;10.128;2024-01-27T08:07:33;6.43;;;3.37;;
6378;SDS011;3222;48.858;10.128;2024-01-27T08:09:59;4.37;;;3.20;;
6378;SDS011;3222;48.858;10.128;2024-01-27T08:12:25;7.20;;;3.23;;
6378;SDS011;3222;48.858;10.128;2024-01-27T08:14:51;5.13;;;3.07;;
6378;SDS011;3222;48.858;10.128;2024-01-27T08:17:16;8.50;;;4.27;;
6378;SDS011;3222;48.858;10.128;2024-01-27T08:19:42;7.43;;;4.77;;
6378;SDS011;3222;48.858;10.128;2024-01-27T08:22:07;9.83;;;5.10;;
6378;SDS011;3222;48.858;10.128;2024-01-27T08:24:34;7.23;;;4.90;;
6378;SDS011;3222;48.858;10.128;2024-01-27T08:27:00;8.07;;;5.13;;
6378;SDS011;3222;48.858;10.128;2024-01-27T08:29:26;9.20;;;4.70;;
6378;SDS011;3222;48.858;10.128;2024-01-27T08:31:52;11.03;;;5.03;;
6378;SDS011;3222;48.858;10.128;2024-01-27T08:34:17;11.00;;;5.13;;
6378;SDS011;3222;48.858;10.128;2024-01-27T08:36:43;11.03;;;4.77;;
6378;SDS011;3222;48.858;10.128;2024-01-27T08:39:09;11.43;;;4.97;;
6378;SDS011;3222;48.858;10.128;2024-01-27T08:41:37;11.47;;;4.67;;
6378;SDS011;3222;48.858;10.128;2024-01-27T08:44:02;8.07;;;4.17;;
6378;SDS011;3222;48.858;10.128;2024-01-27T08:46:28;4.93;;;4.20;;
6378;SDS011;3222;48.858;10.128;2024-01-27T08:48:54;10.57;;;4.83;;
6378;SDS011;3222;48.858;10.128;2024-01-27T08:51:19;12.47;;;4.30;;
6378;SDS011;3222;48.858;10.128;2024-01-27T08:53:45;7.57;;;4.03;;
6378;SDS011;3222;48.858;10.128;2024-01-27T08:56:16;7.67;;;4.03;;
6378;SDS011;3222;48.858;10.128;2024-01-27T08:58:45;7.93;;;3.47;;
6378;SDS011;3222;48.858;10.128;2024-01-27T09:01:18;6.70;;;3.60;;
6378;SDS011;3222;48.858;10.128;2024-01-27T09:03:44;7.67;;;3.60;;
6378;SDS011;3222;48.858;10.128;2024-01-27T09:06:10;5.63;;;3.20;;
6378;SDS011;3222;48.858;10.128;2024-01-27T09:08:35;6.90;;;3.33;;
6378;SDS011;3222;48.858;10.128;2024-01-27T09:11:02;7.70;;;3.73;;
6378;SDS011;3222;48.858;10.128;2024-01-27T09:13:28;12.63;;;4.50;;
6378;SDS011;3222;48.858;10.128;2024-01-27T09:15:54;4.03;;;3.00;;
6378;SDS011;3222;48.858;10.128;2024-01-27T09:18:20;9.40;;;3.93;;
6378;SDS011;3222;48.858;10.128;2024-01-27T09:20:45;5.73;;;3.13;;
6378;SDS011;3222;48.858;10.128;2024-01-27T09:23:11;8.27;;;3.93;;
6378;SDS011;3222;48.858;10.128;2024-01-27T09:25:37;6.73;;;4.10;;
6378;SDS011;3222;48.858;10.128;2024-01-27T09:28:02;9.23;;;4.30;;
6378;SDS011;3222;48.858;10.128;2024-01-27T09:30:28;9.10;;;4.50;;
6378;SDS011;3222;48.858;10.128;2024-01-27T09:32:54;8.40;;;4.50;;
6378;SDS011;3222;48.858;10.128;2024-01-27T09:35:20;10.67;;;4.03;;
6378;SDS011;3222;48.858;10.128;2024-01-27T09:37:45;5.93;;;4.40;;
6378;SDS011;3222;48.858;10.128;2024-01-27T09:40:11;13.20;;;5.13;;
6378;SDS011;3222;48.858;10.128;2024-01-27T09:42:37;9.90;;;5.60;;
6378;SDS011;3222;48.858;10.128;2024-01-27T09:45:07;10.47;;;5.30;;
6378;SDS011;3222;48.858;10.128;2024-01-27T09:47:34;13.03;;;5.70;;
6378;SDS011;3222;48.858;10.128;2024-01-27T09:50:01;9.50;;;5.03;;
6378;SDS011;3222;48.858;10.128;2024-01-27T09:52:27;10.87;;;5.73;;
6378;SDS011;3222;48.858;10.128;2024-01-27T09:54:53;10.20;;;5.30;;
6378;SDS011;3222;48.858;10.128;2024-01-27T09:57:19;12.07;;;5.50;;
6378;SDS011;3222;48.858;10.128;2024-01-27T09:59:46;7.40;;;4.23;;
6378;SDS011;3222;48.858;10.128;2024-01-27T10:02:14;10.47;;;4.97;;
6378;SDS011;3222;48.858;10.128;2024-01-27T10:04:42;11.07;;;4.07;;
6378;SDS011;3222;48.858;10.128;2024-01-27T10:07:10;8.73;;;4.37;;
6378;SDS011;3222;48.858;10.128;2024-01-27T10:09:36;7.53;;;4.40;;
6378;SDS011;3222;48.858;10.128;2024-01-27T10:12:02;8.00;;;4.77;;
6378;SDS011;3222;48.858;10.128;2024-01-27T10:14:38;7.47;;;4.50;;
6378;SDS011;3222;48.858;10.128;2024-01-27T10:17:05;10.67;;;4.80;;
6378;SDS011;3222;48.858;10.128;2024-01-27T10:19:30;11.17;;;4.53;;
6378;SDS011;3222;48.858;10.128;2024-01-27T10:21:59;10.50;;;4.43;;
6378;SDS011;3222;48.858;10.128;2024-01-27T10:24:27;9.80;;;4.23;;
6378;SDS011;3222;48.858;10.128;2024-01-27T10:27:00;9.50;;;4.90;;
6378;SDS011;3222;48.858;10.128;2024-01-27T10:29:26;9.27;;;4.50;;
6378;SDS011;3222;48.858;10.128;2024-01-27T10:31:53;10.10;;;4.53;;
6378;SDS011;3222;48.858;10.128;2024-01-27T10:34:21;7.90;;;4.87;;
6378;SDS011;3222;48.858;10.128;2024-01-27T10:36:47;8.30;;;5.00;;
6378;SDS011;3222;48.858;10.128;2024-01-27T10:39:22;11.00;;;5.07;;
6378;SDS011;3222;48.858;10.128;2024-01-27T10:41:49;10.23;;;5.40;;
6378;SDS011;3222;48.858;10.128;2024-01-27T10:44:16;9.60;;;5.67;;
6378;SDS011;3222;48.858;10.128;2024-01-27T10:46:44;10.80;;;6.07;;
6378;SDS011;3222;48.858;10.128;2024-01-27T10:49:15;10.13;;;5.20;;
6378;SDS011;3222;48.858;10.128;2024-01-27T10:51:45;10.97;;;5.07;;
6378;SDS011;3222;48.858;10.128;2024-01-27T10:54:24;7.63;;;5.60;;
6378;SDS011;3222;48.858;10.128;2024-01-27T10:56:53;11.13;;;5.40;;
6378;SDS011;3222;48.858;10.128;2024-01-27T10:59:21;11.17;;;5.90;;
6378;SDS011;3222;48.858;10.128;2024-01-27T11:01:48;7.10;;;5.03;;
6378;SDS011;3222;48.858;10.128;2024-01-27T11:04:19;8.60;;;4.87;;
6378;SDS011;3222;48.858;10.128;2024-01-27T11:06:47;10.70;;;4.73;;
6378;SDS011;3222;48.858;10.128;2024-01-27T11:09:13;7.87;;;4.50;;
6378;SDS011;3222;48.858;10.128;2024-01-27T11:11:39;8.70;;;4.27;;
6378;SDS011;3222;48.858;10.128;2024-01-27T11:14:07;8.20;;;4.53;;
6378;SDS011;3222;48.858;10.128;2024-01-27T11:16:34;9.77;;;5.00;;
6378;SDS011;3222;48.858;10.128;2024-01-27T11:19:00;8.23;;;4.70;;
6378;SDS011;3222;48.858;10.128;2024-01-27T11:21:27;7.07;;;4.83;;
6378;SDS011;3222;48.858;10.128;2024-01-27T11:23:52;9.27;;;5.00;;
6378;SDS011;3222;48.858;10.128;2024-01-27T11:26:21;7.30;;;4.70;;
6378;SDS011;3222;48.858;10.128;2024-01-27T11:28:48;9.37;;;4.57;;
6378;SDS011;3222;48.858;10.128;2024-01-27T11:31:16;5.40;;;4.10;;
6378;SDS011;3222;48.858;10.128;2024-01-27T11:33:44;6.37;;;3.37;;
6378;SDS011;3222;48.858;10.128;2024-01-27T11:36:22;8.03;;;4.03;;
6378;SDS011;3222;48.858;10.128;2024-01-27T11:38:48;7.60;;;4.20;;
6378;SDS011;3222;48.858;10.128;2024-01-27T11:41:27;8.70;;;4.03;;
6378;SDS011;3222;48.858;10.128;2024-01-27T11:43:54;8.70;;;3.77;;
6378;SDS011;3222;48.858;10.128;2024-01-27T11:46:21;6.17;;;3.47;;
6378;SDS011;3222;48.858;10.128;2024-01-27T11:48:47;6.67;;;3.23;;
6378;SDS011;3222;48.858;10.128;2024-01-27T11:51:14;5.33;;;3.20;;
6378;SDS011;3222;48.858;10.128;2024-01-27T11:53:40;7.50;;;3.30;;
6378;SDS011;3222;48.858;10.128;2024-01-27T11:56:06;4.83;;;3.63;;
6378;SDS011;3222;48.858;10.128;2024-01-27T11:58:32;6.77;;;3.80;;
6378;SDS011;3222;48.858;10.128;2024-01-27T12:00:58;9.23;;;4.30;;
6378;SDS011;3222;48.858;10.128;2024-01-27T12:03:24;7.70;;;4.23;;
6378;SDS011;3222;48.858;10.128;2024-01-27T12:05:50;7.60;;;3.87;;
6378;SDS011;3222;48.858;10.128;2024-01-27T12:08:17;8.13;;;4.03;;
6378;SDS011;3222;48.858;10.128;2024-01-27T12:10:42;8.33;;;4.30;;
6378;SDS011;3222;48.858;10.128;2024-01-27T12:13:08;10.80;;;4.87;;
6378;SDS011;3222;48.858;10.128;2024-01-27T12:15:34;6.60;;;4.33;;
6378;SDS011;3222;48.858;10.128;2024-01-27T12:18:00;9.03;;;4.30;;
6378;SDS011;3222;48.858;10.128;2024-01-27T12:20:26;9.53;;;4.13;;
6378;SDS011;3222;48.858;10.128;2024-01-27T12:25:30;7.60;;;4.00;;
6378;SDS011;3222;48.858;10.128;2024-01-27T12:27:56;9.37;;;3.80;;
6378;SDS011;3222;48.858;10.128;2024-01-27T12:30:26;7.00;;;3.80;;
6378;SDS011;3222;48.858;10.128;2024-01-27T12:32:52;9.27;;;4.13;;
6378;SDS011;3222;48.858;10.128;2024-01-27T12:35:18;6.13;;;3.53;;
6378;SDS011;3222;48.858;10.128;2024-01-27T12:37:43;5.77;;;3.80;;
6378;SDS011;3222;48.858;10.128;2024-01-27T12:40:19;8.80;;;3.83;;
6378;SDS011;3222;48.858;10.128;2024-01-27T12:42:45;8.53;;;3.50;;
6378;SDS011;3222;48.858;10.128;2024-01-27T12:45:11;6.47;;;3.30;;
6378;SDS011;3222;48.858;10.128;2024-01-27T12:47:37;6.30;;;2.97;;
6378;SDS011;3222;48.858;10.128;2024-01-27T12:50:04;7.13;;;3.10;;
6378;SDS011;3222;48.858;10.128;2024-01-27T12:52:29;6.80;;;3.20;;
6378;SDS011;3222;48.858;10.128;2024-01-27T12:54:55;6.80;;;3.33;;
6378;SDS011;3222;48.858;10.128;2024-01-27T12:57:21;6.97;;;3.20;;
6378;SDS011;3222;48.858;10.128;2024-01-27T12:59:46;8.00;;;3.53;;
6378;SDS011;3222;48.858;10.128;2024-01-27T13:02:12;5.53;;;3.23;;
6378;SDS011;3222;48.858;10.128;2024-01-27T13:04:38;4.93;;;2.90;;
6378;SDS011;3222;48.858;10.128;2024-01-27T13:07:04;5.80;;;2.60;;
6378;SDS011;3222;48.858;10.128;2024-01-27T13:09:29;4.73;;;2.23;;
6378;SDS011;3222;48.858;10.128;2024-01-27T13:11:55;5.07;;;2.37;;
6378;SDS011;3222;48.858;10.128;2024-01-27T13:14:21;3.37;;;2.00;;
6378;SDS011;3222;48.858;10.128;2024-01-27T13:16:47;4.30;;;2.20;;
6378;SDS011;3222;48.858;10.128;2024-01-27T13:19:13;4.40;;;2.00;;
6378;SDS011;3222;48.858;10.128;2024-01-27T13:21:38;5.70;;;1.93;;
6378;SDS011;3222;48.858;10.128;2024-01-27T13:24:05;7.30;;;2.03;;
6378;SDS011;3222;48.858;10.128;2024-01-27T13:26:34;3.70;;;1.70;;
6378;SDS011;3222;48.858;10.128;2024-01-27T13:29:03;5.80;;;2.10;;
6378;SDS011;3222;48.858;10.128;2024-01-27T13:31:29;3.07;;;2.63;;
6378;SDS011;3222;48.858;10.128;2024-01-27T13:33:56;4.30;;;1.90;;
6378;SDS011;3222;48.858;10.128;2024-01-27T13:36:22;3.87;;;1.77;;
6378;SDS011;3222;48.858;10.128;2024-01-27T13:38:48;7.47;;;2.17;;
6378;SDS011;3222;48.858;10.128;2024-01-27T13:41:14;5.07;;;2.10;;
6378;SDS011;3222;48.858;10.128;2024-01-27T13:43:40;3.93;;;2.20;;
6378;SDS011;3222;48.858;10.128;2024-01-27T13:46:06;3.17;;;1.67;;
6378;SDS011;3222;48.858;10.128;2024-01-27T13:48:32;3.67;;;1.80;;
6378;SDS011;3222;48.858;10.128;2024-01-27T13:50:58;6.27;;;1.90;;
6378;SDS011;3222;48.858;10.128;2024-01-27T13:53:23;3.73;;;2.00;;
6378;SDS011;3222;48.858;10.128;2024-01-27T13:55:49;5.07;;;2.00;;
6378;SDS011;3222;48.858;10.128;2024-01-27T13:58:15;4.83;;;2.10;;
6378;SDS011;3222;48.858;10.128;2024-01-27T14:00:41;5.97;;;1.90;;
6378;SDS011;3222;48.858;10.128;2024-01-27T14:03:07;5.90;;;2.20;;
6378;SDS011;3222;48.858;10.128;2024-01-27T14:05:33;4.73;;;1.90;;
6378;SDS011;3222;48.858;10.128;2024-01-27T14:07:59;4.47;;;2.00;;
6378;SDS011;3222;48.858;10.128;2024-01-27T14:10:25;4.70;;;2.27;;
6378;SDS011;3222;48.858;10.128;2024-01-27T14:12:51;3.27;;;2.07;;
6378;SDS011;3222;48.858;10.128;2024-01-27T14:15:16;4.07;;;2.00;;
6378;SDS011;3222;48.858;10.128;2024-01-27T14:17:42;6.43;;;1.97;;
6378;SDS011;3222;48.858;10.128;2024-01-27T14:20:08;4.17;;;2.13;;
6378;SDS011;3222;48.858;10.128;2024-01-27T14:22:35;4.40;;;2.00;;
6378;SDS011;3222;48.858;10.128;2024-01-27T14:25:01;4.10;;;2.03;;
6378;SDS011;3222;48.858;10.128;2024-01-27T14:27:27;48.10;;;12.60;;
6378;SDS011;3222;48.858;10.128;2024-01-27T14:29:53;39.50;;;11.73;;
6378;SDS011;3222;48.858;10.128;2024-01-27T14:32:20;21.00;;;5.87;;
6378;SDS011;3222;48.858;10.128;2024-01-27T14:34:46;20.03;;;6.10;;
6378;SDS011;3222;48.858;10.128;2024-01-27T14:37:12;5.70;;;2.33;;
6378;SDS011;3222;48.858;10.128;2024-01-27T14:39:39;4.60;;;2.40;;
6378;SDS011;3222;48.858;10.128;2024-01-27T14:42:09;10.57;;;2.57;;
6378;SDS011;3222;48.858;10.128;2024-01-27T14:44:35;7.43;;;2.20;;
6378;SDS011;3222;48.858;10.128;2024-01-27T14:47:01;4.43;;;2.70;;
6378;SDS011;3222;48.858;10.128;2024-01-27T14:49:26;5.57;;;2.27;;
6378;SDS011;3222;48.858;10.128;2024-01-27T14:51:53;6.23;;;2.93;;
6378;SDS011;3222;48.858;10.128;2024-01-27T14:54:19;5.43;;;2.33;;
6378;SDS011;3222;48.858;10.128;2024-01-27T14:56:44;3.53;;;2.10;;